Time;durP1;ratioP1;P1;durP2;ratioP2;P2;SDS_P1;SDS_P2;PMS_P1;PMS_P2;Temp;Humidity;BMP_temperature;BMP_pressure;BME280_temperature;BME280_humidity;BME280_pressure;Samples;Min_cycle;Max_cycle;Signal;HPM_P1;HPM_P2
2021/10/30 00:02:11;;;;;;;1.20;1.10;;;;;;;21.92;46.20;100350.56;4997434;28;20390;-61
2021/10/30 00:04:36;;;;;;;2.63;1.17;;;;;;;21.90;46.66;100339.88;4997454;28;20050;-61
2021/10/30 00:07:01;;;;;;;1.95;1.48;;;;;;;21.89;46.67;100357.28;4997019;28;20030;-61
2021/10/30 00:09:27;;;;;;;1.92;1.08;;;;;;;21.86;45.90;100345.97;4998440;28;20021;-60
2021/10/30 00:11:52;;;;;;;2.40;1.40;;;;;;;21.88;46.27;100360.25;5022524;28;20464;-61
2021/10/30 00:14:18;;;;;;;1.83;1.42;;;;;;;21.87;46.43;100355.84;5018671;28;20113;-61
2021/10/30 00:16:43;;;;;;;3.50;1.25;;;;;;;21.86;46.15;100363.13;5024898;28;20029;-61
2021/10/30 00:19:09;;;;;;;1.95;1.10;;;;;;;21.83;46.31;100346.38;5025235;28;20033;-61
2021/10/30 00:21:34;;;;;;;1.33;1.23;;;;;;;21.82;46.24;100334.63;5026022;28;20022;-61
2021/10/30 00:24:00;;;;;;;3.13;0.98;;;;;;;21.84;46.13;100334.41;5023828;28;20036;-61
2021/10/30 00:26:26;;;;;;;1.27;1.00;;;;;;;21.79;46.04;100336.94;5008962;28;20022;-61
2021/10/30 00:28:52;;;;;;;1.85;1.35;;;;;;;21.74;46.21;100336.75;5023971;28;20529;-60
2021/10/30 00:31:17;;;;;;;3.50;2.13;;;;;;;21.68;46.74;100326.69;5023709;28;20018;-60
2021/10/30 00:33:42;;;;;;;1.70;1.23;;;;;;;21.58;45.88;100315.41;5025456;28;20490;-60
2021/10/30 00:36:08;;;;;;;2.13;1.35;;;;;;;21.58;45.68;100316.22;5025214;28;20018;-60
2021/10/30 00:38:35;;;;;;;2.03;1.52;;;;;;;21.47;46.20;100312.25;5024247;28;20029;-60
2021/10/30 00:41:03;;;;;;;2.55;1.30;;;;;;;21.46;46.97;100310.59;5026016;28;20067;-61
2021/10/30 00:43:29;;;;;;;1.63;1.02;;;;;;;21.42;46.81;100316.69;5021240;28;20533;-60
2021/10/30 00:45:54;;;;;;;2.58;1.30;;;;;;;21.39;46.80;100328.84;5016367;28;20025;-61
2021/10/30 00:48:20;;;;;;;2.67;1.42;;;;;;;21.38;45.99;100320.91;4999749;28;20063;-61
2021/10/30 00:50:45;;;;;;;1.52;1.15;;;;;;;21.35;46.80;100316.72;5016496;28;20029;-61
2021/10/30 00:53:11;;;;;;;3.15;1.20;;;;;;;21.33;46.83;100323.38;5016486;28;20049;-61
2021/10/30 00:55:37;;;;;;;2.38;1.30;;;;;;;21.30;47.34;100324.66;4982760;28;20056;-61
2021/10/30 00:58:03;;;;;;;1.35;1.08;;;;;;;21.28;46.96;100320.47;5016788;28;20418;-61
2021/10/30 01:00:29;;;;;;;4.75;1.58;;;;;;;21.25;46.56;100319.00;5016632;28;20033;-60
2021/10/30 01:02:55;;;;;;;1.25;1.15;;;;;;;21.26;46.33;100317.97;4999134;28;20061;-60
2021/10/30 01:05:21;;;;;;;3.72;2.35;;;;;;;21.25;46.87;100315.44;5016668;28;20037;-61
2021/10/30 01:07:47;;;;;;;2.45;1.98;;;;;;;21.22;47.20;100319.41;4999029;28;20025;-60
2021/10/30 01:10:12;;;;;;;6.35;1.50;;;;;;;21.19;47.04;100311.66;5016332;28;20076;-60
2021/10/30 01:12:38;;;;;;;10.15;1.88;;;;;;;21.16;47.81;100306.63;5016382;28;20108;-61
2021/10/30 01:15:05;;;;;;;2.17;1.67;;;;;;;21.14;46.99;100297.00;5016736;28;20028;-60
2021/10/30 01:17:32;;;;;;;4.30;2.38;;;;;;;21.10;46.65;100288.44;4983107;28;20014;-60
2021/10/30 01:19:57;;;;;;;1.92;1.50;;;;;;;21.09;46.78;100283.19;5017103;28;20049;-60
2021/10/30 01:22:23;;;;;;;2.00;1.55;;;;;;;21.07;47.08;100280.69;4998642;28;20030;-60
2021/10/30 01:24:49;;;;;;;3.58;1.70;;;;;;;21.08;47.03;100281.53;4999616;28;20030;-61
2021/10/30 01:27:16;;;;;;;1.85;1.60;;;;;;;21.09;47.27;100278.56;4998763;28;20494;-60
2021/10/30 01:29:42;;;;;;;3.65;1.77;;;;;;;21.09;47.56;100272.28;5016433;28;20022;-61
2021/10/30 01:32:08;;;;;;;2.55;1.67;;;;;;;21.08;46.99;100278.81;5016342;28;20030;-60
2021/10/30 01:34:34;;;;;;;5.90;1.38;;;;;;;21.06;47.04;100267.22;4983599;28;20046;-60
2021/10/30 01:36:59;;;;;;;3.83;1.58;;;;;;;21.04;47.50;100270.16;4979467;28;20112;-60
2021/10/30 01:39:25;;;;;;;4.30;1.67;;;;;;;20.99;47.30;100256.34;4996466;28;20477;-60
2021/10/30 01:41:51;;;;;;;2.67;1.67;;;;;;;21.00;47.09;100260.72;4979263;28;20022;-60
2021/10/30 01:44:16;;;;;;;6.20;2.10;;;;;;;20.97;47.63;100246.69;4979380;28;20080;-60
2021/10/30 01:46:42;;;;;;;3.03;1.90;;;;;;;20.97;47.45;100258.44;4996575;28;20442;-60
2021/10/30 01:49:07;;;;;;;4.18;1.88;;;;;;;20.93;47.27;100246.31;4996929;28;20034;-60
2021/10/30 01:51:33;;;;;;;3.50;1.63;;;;;;;20.92;47.65;100239.16;4996616;28;20483;-60
2021/10/30 01:53:58;;;;;;;1.73;1.50;;;;;;;20.90;47.08;100238.56;4978659;28;20026;-61
2021/10/30 01:56:24;;;;;;;3.15;1.95;;;;;;;20.88;47.84;100243.38;4979225;28;20022;-60
2021/10/30 01:58:50;;;;;;;3.20;1.70;;;;;;;20.86;47.42;100234.56;4979055;28;20022;-60
2021/10/30 02:01:15;;;;;;;4.03;1.85;;;;;;;20.84;47.11;100225.78;4996540;28;20042;-60
2021/10/30 02:03:41;;;;;;;7.78;2.28;;;;;;;20.81;47.36;100221.59;4996259;28;20387;-60
2021/10/30 02:06:06;;;;;;;2.72;1.92;;;;;;;20.81;47.91;100226.19;4978437;28;20030;-61
2021/10/30 02:08:32;;;;;;;3.58;2.45;;;;;;;20.81;47.79;100220.75;4996343;28;20364;-60
2021/10/30 02:10:58;;;;;;;3.65;2.10;;;;;;;20.79;47.01;100204.63;4995657;28;20030;-62
2021/10/30 02:13:24;;;;;;;3.78;2.30;;;;;;;20.77;47.77;100203.16;4978185;28;20032;-60
2021/10/30 02:15:50;;;;;;;5.00;2.92;;;;;;;20.72;47.54;100203.78;4978525;28;20022;-60
2021/10/30 02:18:15;;;;;;;5.15;3.22;;;;;;;20.72;47.16;100197.50;4995936;28;20109;-60
2021/10/30 02:20:41;;;;;;;5.80;2.78;;;;;;;20.70;47.43;100195.00;4996062;28;20050;-60
2021/10/30 02:23:07;;;;;;;4.95;2.47;;;;;;;20.64;47.15;100175.94;4996262;28;20505;-60
2021/10/30 02:25:32;;;;;;;4.22;2.97;;;;;;;20.66;47.56;100176.59;4995983;28;20057;-60
2021/10/30 02:27:58;;;;;;;5.30;3.03;;;;;;;20.62;47.39;100169.88;4996221;28;20031;-60
2021/10/30 02:30:24;;;;;;;5.90;3.15;;;;;;;20.61;47.53;100168.19;4996063;28;20034;-60
2021/10/30 02:32:50;;;;;;;7.90;3.50;;;;;;;20.58;48.13;100160.44;4996893;28;20023;-60
2021/10/30 02:35:15;;;;;;;5.32;3.00;;;;;;;20.61;47.73;100155.44;5015330;28;20529;-60
2021/10/30 02:37:41;;;;;;;8.77;3.00;;;;;;;20.62;47.87;100151.66;5014711;28;20386;-60
2021/10/30 02:40:07;;;;;;;4.10;2.78;;;;;;;20.64;47.35;100162.31;5015356;28;20050;-60
2021/10/30 02:42:33;;;;;;;3.22;2.50;;;;;;;20.60;47.54;100152.94;4997837;28;20025;-60
2021/10/30 02:45:00;;;;;;;4.75;2.38;;;;;;;20.63;47.54;100153.31;5015410;28;20059;-61
2021/10/30 02:47:28;;;;;;;5.40;3.05;;;;;;;20.63;47.59;100141.63;4997615;28;20494;-60
2021/10/30 02:49:54;;;;;;;5.60;2.70;;;;;;;20.63;47.56;100149.78;5014736;28;20034;-60
2021/10/30 02:52:19;;;;;;;4.05;2.78;;;;;;;20.60;47.97;100150.22;4998830;28;20033;-60
2021/10/30 02:54:45;;;;;;;2.88;2.47;;;;;;;20.59;47.75;100145.81;4997679;28;20379;-61
2021/10/30 02:57:10;;;;;;;3.85;2.30;;;;;;;20.56;47.37;100140.78;5015504;28;20104;-60
2021/10/30 02:59:35;;;;;;;7.10;2.42;;;;;;;20.56;47.17;100136.19;4997438;28;20025;-60
2021/10/30 03:02:01;;;;;;;4.45;2.72;;;;;;;20.57;47.91;100124.25;5015040;28;20030;-60
2021/10/30 03:04:26;;;;;;;3.28;2.42;;;;;;;20.55;47.57;100117.31;5015446;28;20108;-60
2021/10/30 03:06:51;;;;;;;4.18;2.33;;;;;;;20.56;47.83;100113.56;5015396;28;20101;-60
2021/10/30 03:09:17;;;;;;;3.47;2.42;;;;;;;20.54;47.78;100113.78;5014955;28;20084;-61
2021/10/30 03:11:42;;;;;;;5.25;2.97;;;;;;;20.54;47.68;100121.09;5015719;28;20030;-60
2021/10/30 03:14:08;;;;;;;3.50;2.63;;;;;;;20.53;47.62;100116.69;5014981;28;20486;-60
2021/10/30 03:16:33;;;;;;;5.32;2.75;;;;;;;20.52;47.48;100123.22;5015152;28;20467;-60
2021/10/30 03:18:58;;;;;;;2.80;2.10;;;;;;;20.50;47.93;100108.97;4997634;28;20084;-60
2021/10/30 03:21:24;;;;;;;3.97;2.70;;;;;;;20.48;47.53;100100.19;5014699;28;20528;-60
2021/10/30 03:23:49;;;;;;;2.85;2.10;;;;;;;20.47;47.55;100101.22;4997215;28;20018;-60
2021/10/30 03:26:15;;;;;;;4.43;2.50;;;;;;;20.42;47.91;100095.56;5014569;28;20025;-61
2021/10/30 03:28:40;;;;;;;8.15;2.53;;;;;;;20.40;48.02;100093.06;5015220;28;20033;-61
2021/10/30 03:31:06;;;;;;;4.47;2.55;;;;;;;20.35;47.41;100089.31;5015169;28;20033;-60
2021/10/30 03:33:31;;;;;;;5.18;2.55;;;;;;;20.33;47.71;100092.22;4990249;28;20057;-61
2021/10/30 03:35:57;;;;;;;3.63;2.00;;;;;;;20.28;48.35;100087.44;4995071;28;20024;-60
2021/10/30 03:38:22;;;;;;;6.57;2.13;;;;;;;20.21;48.51;100083.81;4995302;28;20030;-60
2021/10/30 03:40:48;;;;;;;3.58;2.10;;;;;;;20.17;48.52;100090.75;4977793;28;20032;-60
2021/10/30 03:43:13;;;;;;;5.47;2.38;;;;;;;20.11;48.39;100088.88;4995237;28;20077;-60
2021/10/30 03:45:39;;;;;;;3.67;2.03;;;;;;;20.07;48.61;100093.03;4997001;28;20030;-60
2021/10/30 03:48:05;;;;;;;4.40;2.70;;;;;;;20.05;48.73;100089.69;4981438;28;20035;-60
2021/10/30 03:50:30;;;;;;;5.80;1.73;;;;;;;20.04;49.08;100087.19;4998791;28;20085;-60
2021/10/30 03:52:56;;;;;;;3.42;1.88;;;;;;;20.01;48.65;100088.44;4998513;28;20018;-60
2021/10/30 03:55:21;;;;;;;4.57;2.78;;;;;;;20.02;49.00;100095.53;4998653;28;20080;-60
2021/10/30 03:57:47;;;;;;;6.47;2.17;;;;;;;20.01;49.34;100088.44;4998937;28;20041;-60
2021/10/30 04:00:13;;;;;;;2.42;1.85;;;;;;;20.03;48.94;100097.22;4998802;28;20030;-59
2021/10/30 04:02:39;;;;;;;5.78;2.17;;;;;;;20.05;49.24;100092.41;4980713;28;20538;-60
2021/10/30 04:05:04;;;;;;;2.53;1.90;;;;;;;20.00;48.51;100081.31;4998289;28;20026;-60
2021/10/30 04:07:30;;;;;;;4.22;2.05;;;;;;;20.04;48.70;100082.59;4998393;28;20372;-60
2021/10/30 04:09:55;;;;;;;2.25;2.05;;;;;;;20.07;48.95;100089.50;4998321;28;20036;-60
2021/10/30 04:12:20;;;;;;;3.85;1.95;;;;;;;20.08;48.85;100089.28;4998544;28;20110;-60
2021/10/30 04:14:46;;;;;;;5.47;1.80;;;;;;;20.07;48.50;100090.31;4998632;28;20026;-60
2021/10/30 04:17:11;;;;;;;5.38;1.80;;;;;;;20.04;49.22;100077.16;4998245;28;20034;-59
2021/10/30 04:19:36;;;;;;;5.03;2.42;;;;;;;20.04;48.92;100081.75;4998468;28;20053;-59
2021/10/30 04:22:02;;;;;;;3.22;1.48;;;;;;;19.98;49.40;100072.56;4998048;28;20045;-60
2021/10/30 04:24:27;;;;;;;4.88;1.80;;;;;;;19.99;49.25;100068.78;4998604;28;20076;-60
2021/10/30 04:26:53;;;;;;;2.45;1.80;;;;;;;20.01;48.89;100077.56;4998180;28;20158;-59
2021/10/30 04:29:18;;;;;;;4.82;2.08;;;;;;;19.98;49.25;100071.72;4980543;28;20092;-62
2021/10/30 04:31:44;;;;;;;2.13;1.55;;;;;;;19.95;49.04;100062.09;4998230;28;20102;-61
2021/10/30 04:34:18;;;;;;;5.35;1.70;;;;;;;19.92;49.08;100062.50;4980586;28;20058;-60
2021/10/30 04:36:45;;;;;;;3.90;1.50;;;;;;;19.85;49.48;100050.78;4998145;28;20022;-59
2021/10/30 04:39:10;;;;;;;2.42;1.67;;;;;;;19.78;49.29;100049.94;4980559;28;20033;-59
2021/10/30 04:41:38;;;;;;;2.15;1.45;;;;;;;19.71;49.35;100043.66;4997978;28;20027;-60
2021/10/30 04:44:04;;;;;;;2.67;1.67;;;;;;;19.65;49.66;100039.06;4997838;28;20030;-62
2021/10/30 04:46:30;;;;;;;7.13;1.83;;;;;;;19.58;50.00;100025.47;4979956;28;20046;-61
2021/10/30 04:48:55;;;;;;;3.63;1.60;;;;;;;19.56;49.80;100018.56;4997882;28;20037;-60
2021/10/30 04:51:21;;;;;;;7.57;2.20;;;;;;;19.53;49.89;100025.25;4997878;28;20023;-60
2021/10/30 04:53:46;;;;;;;6.70;1.58;;;;;;;19.47;49.80;100019.81;4997958;28;20515;-59
2021/10/30 04:56:12;;;;;;;4.80;1.73;;;;;;;19.48;49.72;100026.91;4997761;28;20022;-59
2021/10/30 04:58:43;;;;;;;3.30;2.20;;;;;;;19.36;49.38;100004.91;4998228;28;20030;-59
2021/10/30 05:01:09;;;;;;;4.20;1.98;;;;;;;19.45;50.31;100016.47;4980446;28;20534;-59
2021/10/30 05:03:34;;;;;;;2.03;1.55;;;;;;;19.45;50.08;100019.19;4997717;28;20029;-59
2021/10/30 05:06:00;;;;;;;3.45;1.70;;;;;;;19.47;50.33;100014.38;4997348;28;20023;-59
2021/10/30 05:08:25;;;;;;;1.77;1.48;;;;;;;19.47;49.90;100014.38;4997305;28;20022;-59
2021/10/30 05:10:50;;;;;;;2.55;1.52;;;;;;;19.46;50.26;100023.53;4979646;28;20026;-59
2021/10/30 05:13:16;;;;;;;3.35;1.83;;;;;;;19.44;50.02;100012.06;4998261;28;20121;-59
2021/10/30 05:15:41;;;;;;;3.83;1.88;;;;;;;19.49;50.55;100012.28;4980304;28;20019;-59
2021/10/30 05:18:07;;;;;;;1.98;1.52;;;;;;;19.49;50.11;100017.72;4980499;28;20474;-59
2021/10/30 05:20:32;;;;;;;5.22;1.88;;;;;;;19.52;50.30;100011.84;4998158;28;20029;-60
2021/10/30 05:22:57;;;;;;;1.77;1.45;;;;;;;19.52;50.26;100001.00;4997266;28;20022;-59
2021/10/30 05:25:23;;;;;;;2.97;1.58;;;;;;;19.49;50.88;100004.13;4997118;28;20046;-59
2021/10/30 05:27:48;;;;;;;2.17;1.30;;;;;;;19.49;50.42;99996.81;4998013;28;20464;-59
2021/10/30 05:30:14;;;;;;;2.50;1.50;;;;;;;19.49;50.39;99998.69;4980617;28;20113;-59
2021/10/30 05:32:39;;;;;;;3.10;1.90;;;;;;;19.50;50.28;99998.50;4980186;28;20517;-59
2021/10/30 05:35:05;;;;;;;4.07;1.80;;;;;;;19.47;50.60;99993.47;5016976;28;20072;-59
2021/10/30 05:37:31;;;;;;;1.73;1.52;;;;;;;19.43;51.05;99984.06;4982952;28;20089;-59
2021/10/30 05:39:56;;;;;;;4.53;1.60;;;;;;;19.49;51.09;99985.09;5016699;28;20022;-59
2021/10/30 05:42:21;;;;;;;2.60;1.77;;;;;;;19.50;50.39;99981.34;5016465;28;20025;-59
2021/10/30 05:44:47;;;;;;;3.40;1.65;;;;;;;19.53;50.87;99975.50;4999159;28;20026;-59
2021/10/30 05:47:13;;;;;;;2.25;1.10;;;;;;;19.52;50.16;99980.09;5017357;28;20101;-59
2021/10/30 05:49:41;;;;;;;1.35;1.13;;;;;;;19.56;50.44;99985.97;5017050;28;20022;-59
2021/10/30 05:52:07;;;;;;;2.33;1.65;;;;;;;19.59;50.58;99991.81;5015883;28;20371;-59
2021/10/30 05:54:33;;;;;;;2.15;1.60;;;;;;;19.64;50.54;100002.06;4999392;28;20025;-59
2021/10/30 05:56:59;;;;;;;2.03;1.00;;;;;;;19.63;50.61;100012.09;4982193;28;20021;-59
2021/10/30 05:59:28;;;;;;;2.53;1.60;;;;;;;19.62;50.20;100006.88;5015697;28;20022;-59
2021/10/30 06:01:54;;;;;;;2.00;1.23;;;;;;;19.61;50.16;99999.75;5015512;28;20034;-59
2021/10/30 06:04:19;;;;;;;2.47;2.15;;;;;;;19.66;50.50;100005.41;5015771;28;20126;-59
2021/10/30 06:06:44;;;;;;;4.88;1.63;;;;;;;19.64;50.86;99993.91;4998503;28;20030;-59
2021/10/30 06:09:10;;;;;;;2.08;1.42;;;;;;;19.67;50.57;99974.47;4998138;28;20038;-59
2021/10/30 06:11:36;;;;;;;2.40;1.42;;;;;;;19.68;50.46;99973.44;5016229;28;20384;-59
2021/10/30 06:14:03;;;;;;;1.63;1.40;;;;;;;19.71;50.50;99992.00;4998020;28;20049;-60
2021/10/30 06:16:29;;;;;;;1.70;1.13;;;;;;;19.75;50.15;99980.53;5015945;28;20026;-59
2021/10/30 06:18:54;;;;;;;2.88;1.38;;;;;;;19.77;50.51;99980.31;5016002;28;20110;-60
2021/10/30 06:21:19;;;;;;;7.97;1.67;;;;;;;19.79;50.52;99991.00;5016015;28;20036;-59
2021/10/30 06:23:48;;;;;;;1.83;1.60;;;;;;;19.77;50.18;99977.59;5016601;28;20053;-60
2021/10/30 06:26:14;;;;;;;1.73;1.60;;;;;;;19.81;50.35;99984.31;5015893;28;20050;-59
2021/10/30 06:28:39;;;;;;;2.63;1.48;;;;;;;19.82;50.03;99975.09;5015963;28;20445;-59
2021/10/30 06:31:06;;;;;;;7.18;1.95;;;;;;;19.84;50.01;99973.00;5015072;28;20034;-59
2021/10/30 06:33:31;;;;;;;5.68;1.77;;;;;;;19.86;50.41;99984.50;5015735;28;20042;-59
2021/10/30 06:35:58;;;;;;;7.55;2.35;;;;;;;19.86;49.87;99975.50;5015529;28;20050;-59
2021/10/30 06:38:23;;;;;;;2.20;1.60;;;;;;;19.91;50.18;99968.38;5015801;28;20084;-59
2021/10/30 06:40:48;;;;;;;2.78;1.40;;;;;;;19.85;50.17;99954.81;5016033;28;20033;-59
2021/10/30 06:43:14;;;;;;;2.95;1.48;;;;;;;19.98;50.11;99971.97;5015624;28;20034;-60
2021/10/30 06:45:39;;;;;;;1.65;1.45;;;;;;;19.99;49.60;99972.78;5015217;28;20058;-59
2021/10/30 06:48:04;;;;;;;2.97;1.70;;;;;;;20.01;50.11;99974.25;5015223;28;20060;-59
2021/10/30 06:50:31;;;;;;;1.83;1.38;;;;;;;19.96;49.30;99971.31;5014675;28;20051;-59
2021/10/30 06:52:56;;;;;;;5.18;1.63;;;;;;;20.01;50.02;99966.09;5015228;28;20071;-59
2021/10/30 06:55:22;;;;;;;2.88;1.60;;;;;;;20.01;49.83;99963.38;5014914;28;20026;-60
2021/10/30 06:57:49;;;;;;;2.58;1.27;;;;;;;20.03;50.06;99971.31;5014854;28;20025;-59
2021/10/30 07:00:14;;;;;;;3.75;1.48;;;;;;;20.05;49.48;99963.78;5015307;28;20052;-59
2021/10/30 07:02:40;;;;;;;3.22;1.88;;;;;;;20.04;49.56;99962.97;5014800;28;20018;-59
2021/10/30 07:05:07;;;;;;;3.45;1.95;;;;;;;20.07;50.01;99950.81;5014825;28;20025;-59
2021/10/30 07:07:32;;;;;;;2.58;1.70;;;;;;;20.07;49.85;99957.06;5014813;28;20081;-60
2021/10/30 07:10:00;;;;;;;3.33;1.52;;;;;;;20.07;50.12;99957.06;5014776;28;20104;-59
2021/10/30 07:12:30;;;;;;;5.13;1.65;;;;;;;20.06;49.49;99955.41;5015644;28;20037;-59
2021/10/30 07:14:56;;;;;;;3.20;1.80;;;;;;;20.04;50.26;99952.09;5015559;28;20026;-59
2021/10/30 07:17:22;;;;;;;5.70;1.70;;;;;;;20.08;49.70;99953.31;5015548;28;20390;-59
2021/10/30 07:19:48;;;;;;;4.53;1.50;;;;;;;20.10;49.45;99956.66;5016137;28;20037;-59
2021/10/30 07:22:14;;;;;;;1.92;1.50;;;;;;;20.15;49.51;99954.16;5002286;28;20034;-59
2021/10/30 07:24:40;;;;;;;1.60;1.25;;;;;;;20.17;49.21;99941.16;5019569;28;20030;-59
2021/10/30 07:27:05;;;;;;;6.07;2.05;;;;;;;20.17;49.00;99952.03;5019519;28;20037;-59
2021/10/30 07:29:31;;;;;;;2.85;1.88;;;;;;;20.18;49.24;99948.25;5018929;28;20061;-59
2021/10/30 07:31:57;;;;;;;4.22;1.45;;;;;;;20.21;49.81;99947.84;5018761;28;20041;-59
2021/10/30 07:34:22;;;;;;;3.97;1.45;;;;;;;20.24;49.50;99952.00;4987426;28;20058;-59
2021/10/30 07:36:48;;;;;;;2.85;1.73;;;;;;;20.25;49.20;99948.28;4999241;28;20030;-59
2021/10/30 07:39:14;;;;;;;1.85;1.45;;;;;;;20.26;49.38;99950.81;4981403;28;20090;-60
2021/10/30 07:41:40;;;;;;;3.83;1.63;;;;;;;20.28;48.84;99948.72;4998980;28;20026;-59
2021/10/30 07:44:05;;;;;;;2.55;1.63;;;;;;;20.32;49.15;99946.41;4998624;28;20427;-60
2021/10/30 07:46:31;;;;;;;2.38;1.40;;;;;;;20.37;48.83;99953.91;4998371;28;20061;-60
2021/10/30 07:48:56;;;;;;;4.82;1.80;;;;;;;20.36;49.21;99944.06;4981960;28;20057;-59
2021/10/30 07:51:22;;;;;;;2.45;1.50;;;;;;;20.43;48.94;99944.91;4998722;28;20030;-60
2021/10/30 07:53:48;;;;;;;2.00;1.48;;;;;;;20.45;49.28;99938.19;4999280;28;20022;-59
2021/10/30 07:56:14;;;;;;;1.67;1.15;;;;;;;20.48;49.79;99934.19;4998702;28;20019;-59
2021/10/30 07:58:40;;;;;;;3.70;1.40;;;;;;;20.50;49.11;99930.22;4979301;28;20066;-59
2021/10/30 08:01:06;;;;;;;2.22;1.48;;;;;;;20.50;49.01;99924.75;4979872;28;20030;-58
2021/10/30 08:03:31;;;;;;;2.40;1.50;;;;;;;20.61;48.79;99925.97;4979855;28;20396;-59
2021/10/30 08:05:56;;;;;;;2.83;1.13;;;;;;;20.62;48.84;99928.50;4979170;28;20029;-58
2021/10/30 08:08:22;;;;;;;2.40;1.35;;;;;;;20.70;49.02;99932.84;4994525;28;20031;-60
2021/10/30 08:10:47;;;;;;;1.95;1.10;;;;;;;20.75;48.69;99938.47;4979521;28;20035;-58
2021/10/30 08:13:13;;;;;;;5.22;1.40;;;;;;;20.76;48.78;99935.56;4979340;28;20056;-59
2021/10/30 08:15:39;;;;;;;1.40;1.30;;;;;;;20.72;49.24;99931.56;4979488;28;20026;-59
2021/10/30 08:18:04;;;;;;;2.47;1.15;;;;;;;20.77;48.38;99928.22;4979205;28;20392;-59
2021/10/30 08:20:31;;;;;;;1.48;1.25;;;;;;;20.73;48.33;99929.69;4983279;28;20029;-59
2021/10/30 08:22:57;;;;;;;1.30;1.13;;;;;;;20.74;48.54;99917.78;5017793;28;20466;-59
2021/10/30 08:25:22;;;;;;;2.38;1.25;;;;;;;20.77;48.42;99922.78;5000803;28;20034;-59
2021/10/30 08:27:47;;;;;;;4.70;1.33;;;;;;;20.78;48.57;99922.56;5018106;28;20108;-60
2021/10/30 08:30:13;;;;;;;3.92;1.05;;;;;;;20.80;49.05;99916.88;5017176;28;20121;-59
2021/10/30 08:32:38;;;;;;;5.55;1.40;;;;;;;20.79;48.70;99920.66;5017143;28;20026;-59
2021/10/30 08:35:05;;;;;;;4.68;1.58;;;;;;;20.83;48.72;99917.28;5036877;28;20041;-59
2021/10/30 08:37:30;;;;;;;2.75;1.38;;;;;;;20.85;48.25;99926.06;5037473;28;20025;-59
2021/10/30 08:39:55;;;;;;;1.88;1.10;;;;;;;20.87;48.72;99920.41;5037493;28;20398;-59
2021/10/30 08:42:22;;;;;;;2.97;1.33;;;;;;;20.89;48.32;99923.75;5037091;28;20101;-59
2021/10/30 08:44:49;;;;;;;1.63;1.40;;;;;;;20.91;48.07;99927.06;5036527;28;20029;-59
2021/10/30 08:47:16;;;;;;;3.38;1.33;;;;;;;20.94;48.18;99926.63;5036908;28;20022;-59
2021/10/30 08:49:42;;;;;;;1.42;0.90;;;;;;;20.93;48.17;99916.81;5019884;28;20390;-59
2021/10/30 08:52:08;;;;;;;2.13;1.10;;;;;;;20.92;48.92;99920.59;5002607;28;20091;-59
2021/10/30 08:54:34;;;;;;;3.60;1.10;;;;;;;20.91;48.29;99921.63;5019136;28;20044;-59
2021/10/30 08:56:59;;;;;;;2.90;1.45;;;;;;;20.88;48.01;99924.81;5036650;28;20526;-59
2021/10/30 08:59:51;;;;;;;1.27;1.13;;;;;;;20.88;48.73;99924.81;5036950;28;20053;-59
2021/10/30 09:02:29;;;;;;;1.50;0.95;;;;;;;20.91;49.12;99921.63;5031932;28;20037;-59
2021/10/30 09:05:18;;;;;;;1.33;1.00;;;;;;;20.90;48.69;99925.41;5036749;28;20021;-59
2021/10/30 09:07:44;;;;;;;1.90;1.10;;;;;;;20.93;48.61;99922.25;5019560;28;20466;-59
2021/10/30 09:10:14;;;;;;;2.88;1.20;;;;;;;20.92;48.80;99918.69;5036404;28;20032;-60
2021/10/30 09:12:51;;;;;;;1.70;1.40;;;;;;;20.97;48.54;99926.19;5036194;28;20398;-59
2021/10/30 09:15:19;;;;;;;2.45;1.20;;;;;;;21.00;48.53;99919.47;5036378;28;20491;-59
2021/10/30 09:17:47;;;;;;;1.70;1.20;;;;;;;21.00;48.76;99925.78;5018380;28;20115;-60
2021/10/30 09:20:14;;;;;;;1.67;1.10;;;;;;;21.01;48.42;99919.28;5036290;28;20048;-60
2021/10/30 09:22:40;;;;;;;2.05;1.25;;;;;;;21.04;48.84;99918.84;5019347;28;20093;-59
2021/10/30 09:25:07;;;;;;;3.35;1.35;;;;;;;21.03;48.10;99930.78;5036095;28;20382;-59
2021/10/30 09:27:44;;;;;;;1.73;1.30;;;;;;;21.03;47.88;99922.59;5036515;28;20029;-58
2021/10/30 09:30:09;;;;;;;1.58;0.90;;;;;;;21.02;48.90;99912.75;5018963;28;20048;-58
2021/10/30 09:32:35;;;;;;;1.90;1.17;;;;;;;21.02;49.14;99920.13;5036199;28;20033;-58
2021/10/30 09:35:03;;;;;;;1.38;0.90;;;;;;;21.02;48.55;99909.22;5035808;28;20568;-58
2021/10/30 09:37:33;;;;;;;1.23;1.13;;;;;;;21.05;48.00;99906.88;5036262;28;20021;-58
2021/10/30 09:40:18;;;;;;;4.43;1.00;;;;;;;21.09;48.01;99908.16;5018450;28;20030;-59
2021/10/30 09:42:46;;;;;;;1.05;0.77;;;;;;;21.07;48.18;99899.38;5034970;28;20026;-59
2021/10/30 09:45:13;;;;;;;2.10;1.42;;;;;;;21.07;48.61;99899.38;5002017;28;20115;-59
2021/10/30 09:47:42;;;;;;;0.88;0.75;;;;;;;21.07;48.58;99899.38;5018221;28;20025;-59
2021/10/30 09:50:32;;;;;;;1.88;1.05;;;;;;;21.10;48.39;99892.66;5018059;28;20026;-59
2021/10/30 09:52:59;;;;;;;0.88;0.80;;;;;;;21.11;48.28;99888.84;5035431;28;20036;-58
2021/10/30 09:55:28;;;;;;;2.78;1.25;;;;;;;21.12;48.58;99888.66;5035266;28;20052;-59
2021/10/30 09:58:03;;;;;;;1.15;0.77;;;;;;;21.16;48.55;99898.03;5035580;28;20081;-60
2021/10/30 10:00:30;;;;;;;0.82;0.60;;;;;;;21.17;48.12;99888.81;5035104;28;20025;-59
2021/10/30 10:02:58;;;;;;;1.13;0.60;;;;;;;21.19;47.91;99891.34;5034954;28;20068;-59
2021/10/30 10:05:27;;;;;;;1.10;0.90;;;;;;;21.19;47.77;99892.16;5035413;28;20029;-59
2021/10/30 10:07:52;;;;;;;1.35;0.80;;;;;;;21.21;47.44;99889.22;5034852;28;20026;-58
2021/10/30 10:10:19;;;;;;;1.05;0.82;;;;;;;21.23;48.09;99887.09;5016908;28;20116;-59
2021/10/30 10:12:45;;;;;;;2.03;0.88;;;;;;;21.23;48.27;99877.03;5000794;28;20367;-58
2021/10/30 10:15:12;;;;;;;1.30;0.60;;;;;;;21.23;47.61;99882.50;5000711;28;20064;-59
2021/10/30 10:17:37;;;;;;;1.00;0.90;;;;;;;21.22;47.62;99880.81;5034709;28;20021;-58
2021/10/30 10:20:04;;;;;;;1.98;0.95;;;;;;;21.23;47.69;99887.09;5034815;28;20033;-58
2021/10/30 10:22:30;;;;;;;1.10;0.80;;;;;;;21.24;48.51;99884.16;5016989;28;20033;-58
2021/10/30 10:25:22;;;;;;;1.02;0.70;;;;;;;21.28;48.23;99879.94;5034565;28;20033;-59
2021/10/30 10:27:47;;;;;;;1.52;0.90;;;;;;;21.26;48.00;99873.88;5034814;28;20080;-59
2021/10/30 10:30:13;;;;;;;2.22;0.90;;;;;;;21.28;47.33;99879.09;5034488;28;20490;-59
2021/10/30 10:32:38;;;;;;;2.10;1.00;;;;;;;21.32;47.55;99877.59;5033765;28;20021;-59
2021/10/30 10:35:05;;;;;;;7.63;1.05;;;;;;;21.33;47.23;99877.38;5034111;28;20081;-59
2021/10/30 10:37:30;;;;;;;0.98;0.60;;;;;;;21.37;47.10;99877.75;5033982;28;20100;-59
2021/10/30 10:39:58;;;;;;;2.25;1.00;;;;;;;21.39;47.93;99881.94;5034008;28;20539;-59
2021/10/30 10:42:35;;;;;;;1.13;0.68;;;;;;;21.41;47.12;99874.38;5034451;28;20025;-59
2021/10/30 10:45:07;;;;;;;0.88;0.88;;;;;;;21.42;46.80;99864.31;5034230;28;20116;-59
2021/10/30 10:47:35;;;;;;;5.45;1.17;;;;;;;21.43;48.00;99863.25;5034027;28;20037;-58
2021/10/30 10:50:13;;;;;;;2.05;1.25;;;;;;;21.48;47.86;99868.88;5033921;28;20025;-59
2021/10/30 10:53:04;;;;;;;3.38;0.73;;;;;;;21.53;46.83;99849.94;5033978;28;20405;-59
2021/10/30 10:55:31;;;;;;;2.08;0.70;;;;;;;21.58;47.71;99852.81;5020478;28;20100;-58
2021/10/30 10:58:07;;;;;;;1.85;0.90;;;;;;;21.64;46.60;99842.91;5033481;28;20025;-58
2021/10/30 11:00:34;;;;;;;1.85;0.85;;;;;;;21.70;46.66;99844.75;5033402;28;20036;-59
2021/10/30 11:02:59;;;;;;;0.93;0.80;;;;;;;21.76;46.89;99847.41;5033757;28;20049;-59
2021/10/30 11:05:26;;;;;;;2.85;0.80;;;;;;;21.83;46.93;99834.53;5015704;28;20111;-59
2021/10/30 11:07:51;;;;;;;1.05;0.80;;;;;;;21.87;46.92;99834.97;5033469;28;20063;-59
2021/10/30 11:10:26;;;;;;;1.15;0.80;;;;;;;21.89;47.54;99833.66;5033478;28;20025;-59
2021/10/30 11:13:09;;;;;;;1.85;1.00;;;;;;;21.93;47.27;99834.06;5033424;28;20367;-59
2021/10/30 11:15:54;;;;;;;0.80;0.60;;;;;;;21.97;47.41;99827.09;5033133;28;20048;-60
2021/10/30 11:18:22;;;;;;;1.75;0.82;;;;;;;22.01;47.42;99825.56;5033545;28;20041;-59
2021/10/30 11:21:16;;;;;;;1.65;0.63;;;;;;;22.05;46.41;99821.34;5033110;28;20032;-59
2021/10/30 11:23:53;;;;;;;0.75;0.30;;;;;;;22.08;47.00;99815.44;5017576;28;20053;-59
2021/10/30 11:26:23;;;;;;;4.35;0.80;;;;;;;22.11;46.80;99825.84;5033363;28;20176;-59
2021/10/30 11:28:49;;;;;;;1.05;0.57;;;;;;;22.19;46.89;99822.00;5033173;28;20401;-60